Benjamas Naree — 9V9405 — position and weather

sailwx.info

Track history (hours):
 
Tides and Currents Weather Stations Pressure Air Temp Water Temp Dewpoint Dewpoint Depression Visibility Wind Speed Wind Dir Waves Ship Positions

Benjamas Naree

Last reported at 2014-Oct-24 05:05 UTC. Time now 2014-Oct-25 03:31 UTC.
Position N 01°10' E 103°48'.

Length 181 m; draft 8.6 m.

Type: Cargo ship. MMSI: 566377000.

Date/timePositionNaut miles runAvg speedWind from/ knotsBaromVisibWave heightAir tempDewpointWater temp
2014-Oct-24 05:05N 01°10' E 103°48'610.9
2014-Oct-24 04:33N 01°13' E 103°53'4 3.2
2014-Oct-24 03:14N 01°17' E 103°54'0 0.0
2014-Oct-24 01:29N 01°17' E 103°54'0 0.0
2014-Oct-24 00:26N 01°17' E 103°54'0 0.0
2014-Oct-23 23:26N 01°17' E 103°54'0 0.1
2014-Oct-23 22:20N 01°17' E 103°54'0 0.0
2014-Oct-23 21:32N 01°17' E 103°54'0 0.1
2014-Oct-23 20:26N 01°17' E 103°54'0 0.1
2014-Oct-23 19:32N 01°17' E 103°54'0 0.0
2014-Oct-23 18:32N 01°17' E 103°54'0 0.1
2014-Oct-23 17:32N 01°17' E 103°54'0 0.0
2014-Oct-23 16:26N 01°17' E 103°54'0 0.0
2014-Oct-23 15:26N 01°17' E 103°54'0 0.0
2014-Oct-23 14:32N 01°17' E 103°54'0 0.1
2014-Oct-23 13:26N 01°17' E 103°54'3 3.3
2014-Oct-23 12:33N 01°14' E 103°53'3 3.5
2014-Oct-23 11:33N 01°14' E 103°57'9 8.8
2014-Oct-23 10:33N 01°17' E 104°05'  
2014-Oct-14 16:30N 34°58' E 139°40'1314.0
2014-Oct-14 15:33N 35°11' E 139°46'1212.3
2014-Oct-14 14:33N 35°23' E 139°42'1413.7
2014-Oct-14 13:32N 35°31' E 139°56'4 0.5
2014-Oct-14 06:21N 35°34' E 139°60'0 0.1
2014-Oct-14 05:24N 35°34' E 139°60'  
Track history (hours):
 
Tides and Currents Weather Stations Pressure Air Temp Water Temp Dewpoint Dewpoint Depression Visibility Wind Speed Wind Dir Waves Ship Positions

Benjamas Naree

Last reported at 2014-Oct-24 05:05 UTC. Time now 2014-Oct-25 03:31 UTC.
Position N 01°10' E 103°48'.

Length 181 m; draft 8.6 m.

Type: Cargo ship. MMSI: 566377000.

Date/timePositionNaut miles runAvg speedWind from/ knotsBaromVisibWave heightAir tempDewpointWater temp
2014-Oct-24 05:05N 01°10' E 103°48'610.9
2014-Oct-24 04:33N 01°13' E 103°53'4 3.2
2014-Oct-24 03:14N 01°17' E 103°54'0 0.0
2014-Oct-24 01:29N 01°17' E 103°54'0 0.0
2014-Oct-24 00:26N 01°17' E 103°54'0 0.0
2014-Oct-23 23:26N 01°17' E 103°54'0 0.1
2014-Oct-23 22:20N 01°17' E 103°54'0 0.0
2014-Oct-23 21:32N 01°17' E 103°54'0 0.1
2014-Oct-23 20:26N 01°17' E 103°54'0 0.1
2014-Oct-23 19:32N 01°17' E 103°54'0 0.0
2014-Oct-23 18:32N 01°17' E 103°54'0 0.1
2014-Oct-23 17:32N 01°17' E 103°54'0 0.0
2014-Oct-23 16:26N 01°17' E 103°54'0 0.0
2014-Oct-23 15:26N 01°17' E 103°54'0 0.0
2014-Oct-23 14:32N 01°17' E 103°54'0 0.1
2014-Oct-23 13:26N 01°17' E 103°54'3 3.3
2014-Oct-23 12:33N 01°14' E 103°53'3 3.5
2014-Oct-23 11:33N 01°14' E 103°57'9 8.8
2014-Oct-23 10:33N 01°17' E 104°05'  
2014-Oct-14 16:30N 34°58' E 139°40'1314.0
2014-Oct-14 15:33N 35°11' E 139°46'1212.3
2014-Oct-14 14:33N 35°23' E 139°42'1413.7
2014-Oct-14 13:32N 35°31' E 139°56'4 0.5
2014-Oct-14 06:21N 35°34' E 139°60'0 0.1
2014-Oct-14 05:24N 35°34' E 139°60'  

Dump ship's entire track history